Aeroporto :
LOGIN :

Iscrizione | Disclaimer

   EN    FR    IT 

 










Sommario :    VFR   VFR Marginale   IFR   IFR Intensivo   IFR Molto Intensivo
Visibilità : 
Base nubi : 
>= 8 km
>= 3000ft
5 / 8 km
1000 / 3000 ft
1500m / 5 km
500 / 1000 ft
800 / 1500m
200 / 500 ft
< 800m
< 200 ft
Simboli :   Temporali  Nebbia  Neve Forte  Precipitazioni Forti  Vento > 20 kt
SIGMETs :   Varie  Temporali  Ghiacco  Turbolenza  Onda orograficha  Ceneri Vulcaniche






- Altitudine del aeroporto : 268 ft
- Codice IATA : BFS


EGAA - Belfast Aldergrove

ULTIMO METAR :
  • 211550Z 22016G27KT 9999 BKN013 10/09 Q1004

METARs OBSOLETI :
  • 211520Z 22017KT 9999 BKN012 10/09 Q1004
  • 211450Z 22016KT 9999 BKN013 10/09 Q1004
  • 211420Z 22016G26KT 9999 BKN013 10/09 Q1004
  • 211350Z 22016KT 9999 -RA BKN013 BKN017 10/09 Q1005
  • 211320Z 22016G28KT 9999 -RA BKN013 BKN017 10/08 Q1005

TAF TAF EGAA
Valido dal 21 a 12 ore il 22 a 12 ore UTC


211104Z 2112/2212 22018G28KT 9999 FEW012 SCT020
TEMPO 2112/2121 22023G38KT 6000 RA -RADZ SCT008 BKN012
BECMG 2121/2124 25020G33KT
TEMPO 2121/2212 7000 SHRA
PROB30
TEMPO 2121/2202 26025G43KT 4000 +SHRA BKN012
PROB30
TEMPO 2206/2212 3000 SHRAGS BKN009



MetMap, La meteo Aeronautica in un colpo d'occhio ! - Copyright ORBIFLY Dicembre 2007 - Disclaimer

ORBIFLY MET'MAP TEAM :

Programmazione e sviluppo : Alexandra Zaïnal
Concezione : Baudouin d'Aumeries
Aiuto per la programmazione : Marc-Olivier Méhu
Supporto tecnico e logistico : Manuel Goepfert
Aiuto per la traduzione : Arnaldo La Scala

Contatto : metmap@orbifly.com




FONTI E CREDITI :

   NOAA